Time;durP1;ratioP1;P1;durP2;ratioP2;P2;SDS_P1;SDS_P2;PMS_P1;PMS_P2;Temp;Humidity;BMP_temperature;BMP_pressure;BME280_temperature;BME280_humidity;BME280_pressure;Samples;Min_cycle;Max_cycle;Signal;HPM_P1;HPM_P2
2022/03/06 00:00:51;;;;;;;7.67;4.57;;;0.40;99.90;0.20;101300.00;;;;4974198;28;112161;-65
2022/03/06 00:03:17;;;;;;;6.77;5.43;;;0.50;99.90;0.20;101300.00;;;;4973539;28;110442;-65
2022/03/06 00:05:43;;;;;;;6.80;5.17;;;0.50;99.90;0.20;101299.00;;;;4974220;28;88026;-65
2022/03/06 00:08:09;;;;;;;10.67;6.37;;;0.50;99.90;0.20;101295.00;;;;4974834;28;87791;-64
2022/03/06 00:10:35;;;;;;;11.43;5.70;;;0.40;99.90;0.10;101295.00;;;;4973482;28;89484;-64
2022/03/06 00:13:01;;;;;;;9.47;4.97;;;0.60;99.90;0.10;101310.00;;;;4975593;28;88141;-64
2022/03/06 00:15:26;;;;;;;15.87;6.23;;;1.20;99.90;0.10;101301.00;;;;4955588;28;106222;-66
2022/03/06 00:17:54;;;;;;;8.80;5.90;;;0.30;99.90;0.10;101297.00;;;;4967397;28;87857;-66
2022/03/06 00:20:20;;;;;;;9.30;6.40;;;0.30;99.90;0.10;101290.00;;;;4975424;28;88450;-66
2022/03/06 00:22:46;;;;;;;6.47;5.73;;;0.40;99.90;0.10;101299.00;;;;4975113;28;87799;-65
2022/03/06 00:25:11;;;;;;;8.13;6.43;;;0.30;99.90;0.10;101294.00;;;;4974205;28;108051;-66
2022/03/06 00:27:37;;;;;;;9.90;6.07;;;0.30;99.90;0.10;101301.00;;;;4973490;28;118811;-65
2022/03/06 00:30:05;;;;;;;9.03;6.50;;;0.40;99.90;0.20;101300.00;;;;4973810;28;117080;-65
2022/03/06 00:32:31;;;;;;;8.67;5.83;;;0.40;99.90;0.20;101301.00;;;;4974379;28;96332;-66
2022/03/06 00:34:57;;;;;;;9.13;5.90;;;1.30;99.90;0.20;101301.00;;;;4973664;28;109255;-66
2022/03/06 00:37:22;;;;;;;5.63;4.47;;;0.50;99.90;0.30;101303.00;;;;4973949;28;117856;-66
2022/03/06 00:39:48;;;;;;;6.57;4.50;;;0.60;99.90;0.30;101299.00;;;;4975413;28;88612;-66
2022/03/06 00:42:14;;;;;;;8.63;4.47;;;0.60;99.90;0.30;101297.00;;;;4974530;28;102082;-65
2022/03/06 00:44:39;;;;;;;6.70;3.90;;;0.50;99.90;0.30;101298.00;;;;4974706;28;109093;-66
2022/03/06 00:47:05;;;;;;;9.63;4.27;;;0.60;99.90;0.30;101297.00;;;;4973640;28;117408;-66
2022/03/06 00:49:32;;;;;;;5.77;4.20;;;0.60;99.90;0.30;101300.00;;;;4974491;28;99688;-65
2022/03/06 00:51:58;;;;;;;6.00;3.87;;;0.60;99.90;0.40;101300.00;;;;4973874;28;110657;-65
2022/03/06 00:54:24;;;;;;;6.77;4.37;;;1.20;99.90;0.40;101296.00;;;;4975612;28;87892;-66
2022/03/06 00:56:50;;;;;;;7.80;4.50;;;1.30;99.90;0.30;101294.00;;;;4980882;28;104773;-66
2022/03/06 00:59:16;;;;;;;6.83;3.47;;;1.30;99.90;0.30;101298.00;;;;4976117;28;117469;-66
2022/03/06 01:01:42;;;;;;;7.97;4.27;;;1.30;99.90;0.30;101305.00;;;;4974449;28;97901;-66
2022/03/06 01:04:08;;;;;;;9.07;3.70;;;1.40;99.90;0.30;101297.00;;;;4974759;28;87898;-66
2022/03/06 01:06:33;;;;;;;4.53;3.67;;;0.60;99.90;0.40;101299.00;;;;4973930;28;106929;-68
2022/03/06 01:08:59;;;;;;;10.50;5.47;;;1.10;99.90;0.40;101301.00;;;;4972488;28;87439;-66
2022/03/06 01:11:25;;;;;;;6.60;4.03;;;0.60;99.90;0.30;101286.00;;;;4973787;28;110715;-66
2022/03/06 01:13:51;;;;;;;6.87;3.97;;;0.70;99.90;0.40;101299.00;;;;4973953;28;107696;-66
2022/03/06 01:16:17;;;;;;;5.33;4.07;;;0.60;99.90;0.40;101298.00;;;;4976175;28;89011;-66
2022/03/06 01:18:43;;;;;;;7.80;5.20;;;0.10;99.90;0.40;101295.00;;;;4974703;28;102229;-66
2022/03/06 01:21:09;;;;;;;5.27;3.70;;;1.50;99.90;0.40;101304.00;;;;4977225;28;110022;-66
2022/03/06 01:23:37;;;;;;;5.50;3.43;;;0.80;99.90;0.40;101308.00;;;;4978151;28;87759;-65
2022/03/06 01:26:04;;;;;;;5.93;4.40;;;0.70;99.90;0.40;101310.00;;;;4977471;28;87619;-65
2022/03/06 01:28:31;;;;;;;6.37;4.57;;;1.00;99.90;0.40;101305.00;;;;4976911;28;88660;-65
2022/03/06 01:30:57;;;;;;;5.27;4.20;;;0.60;99.90;0.40;101293.00;;;;4976973;28;95239;-65
2022/03/06 01:33:22;;;;;;;4.63;3.63;;;0.70;99.90;0.40;101313.00;;;;4975150;28;94643;-65
2022/03/06 01:35:48;;;;;;;6.67;4.30;;;1.50;99.90;0.40;101309.00;;;;4977003;28;94209;-65
2022/03/06 01:38:14;;;;;;;3.80;3.40;;;0.70;99.90;0.40;101312.00;;;;4975961;28;116279;-67
2022/03/06 01:40:40;;;;;;;8.53;4.30;;;0.70;99.90;0.40;101308.00;;;;4976134;28;110230;-67
2022/03/06 01:43:06;;;;;;;6.87;4.27;;;0.70;99.90;0.40;101306.00;;;;4976651;28;107868;-66
2022/03/06 01:45:32;;;;;;;8.40;4.77;;;1.00;99.90;0.40;101318.00;;;;4976212;28;117965;-66
2022/03/06 01:47:58;;;;;;;6.50;5.20;;;1.20;99.90;0.40;101317.00;;;;4976611;28;106777;-66
2022/03/06 01:50:35;;;;;;;7.53;5.83;;;0.70;99.90;0.50;101313.00;;;;4976477;28;87640;-66
2022/03/06 01:53:05;;;;;;;9.47;5.40;;;0.70;99.90;0.50;101306.00;;;;4975725;28;87807;-65
2022/03/06 01:55:31;;;;;;;12.73;7.30;;;0.70;99.90;0.50;101313.00;;;;4976384;28;104427;-66
2022/03/06 01:58:03;;;;;;;16.50;7.33;;;1.30;99.90;0.50;101301.00;;;;4975724;28;87873;-65
2022/03/06 02:00:35;;;;;;;12.67;7.40;;;1.00;99.90;0.50;101305.00;;;;4977712;28;87866;-66
2022/03/06 02:03:01;;;;;;;14.37;8.50;;;1.00;99.90;0.60;101307.00;;;;4975022;28;88043;-65
2022/03/06 02:05:27;;;;;;;18.83;8.33;;;0.80;99.90;0.60;101308.00;;;;4976315;28;89956;-66
2022/03/06 02:07:53;;;;;;;13.40;7.63;;;0.80;99.90;0.60;101301.00;;;;4976148;28;88315;-66
2022/03/06 02:10:19;;;;;;;10.73;6.53;;;0.80;99.90;0.60;101295.00;;;;4976641;28;111477;-66
2022/03/06 02:12:46;;;;;;;6.90;4.97;;;0.90;99.90;0.60;101306.00;;;;4976018;28;110081;-65
2022/03/06 02:15:16;;;;;;;7.80;4.17;;;0.80;99.90;0.60;101303.00;;;;4976417;28;88717;-65
2022/03/06 02:17:42;;;;;;;7.13;4.23;;;1.70;99.90;0.60;101297.00;;;;4974150;28;88546;-65
2022/03/06 02:20:12;;;;;;;5.37;3.27;;;1.10;99.90;0.60;101302.00;;;;4977233;28;87848;-65
2022/03/06 02:22:41;;;;;;;5.60;3.33;;;0.90;99.90;0.60;101292.00;;;;4977011;28;87175;-64
2022/03/06 02:25:11;;;;;;;3.07;2.77;;;0.90;99.90;0.60;101288.00;;;;4976711;28;104873;-65
2022/03/06 02:27:37;;;;;;;10.80;3.47;;;1.10;99.90;0.60;101292.00;;;;4976189;28;103335;-64
2022/03/06 02:30:15;;;;;;;4.57;2.97;;;0.80;99.90;0.60;101288.00;;;;4976636;28;88549;-64
2022/03/06 02:32:43;;;;;;;6.20;3.70;;;0.90;99.90;0.60;101286.00;;;;4975191;28;88121;-65
2022/03/06 02:35:09;;;;;;;6.73;3.77;;;0.90;99.90;0.60;101288.00;;;;4976061;28;88076;-65
2022/03/06 02:37:35;;;;;;;3.83;2.97;;;1.00;99.90;0.60;101282.00;;;;4975067;28;96805;-65
2022/03/06 02:40:04;;;;;;;6.77;4.10;;;1.40;99.90;0.70;101276.00;;;;4977266;28;87688;-64
2022/03/06 02:42:34;;;;;;;7.47;3.13;;;1.70;99.90;0.70;101278.00;;;;4974510;28;87657;-64
2022/03/06 02:45:09;;;;;;;4.70;3.40;;;0.90;99.90;0.60;101293.00;;;;4975865;28;105774;-65
2022/03/06 02:47:35;;;;;;;6.50;2.60;;;1.70;99.90;0.70;101287.00;;;;4976165;28;89005;-64
2022/03/06 02:50:02;;;;;;;6.17;4.23;;;1.20;99.90;0.70;101277.00;;;;4976258;28;87856;-64
2022/03/06 02:52:28;;;;;;;5.27;3.67;;;1.00;99.90;0.60;101276.00;;;;4976382;28;87933;-64
2022/03/06 02:54:54;;;;;;;5.83;3.63;;;0.90;99.90;0.60;101275.00;;;;4974363;28;119688;-65
2022/03/06 02:57:20;;;;;;;6.57;3.87;;;0.90;99.90;0.60;101286.00;;;;4975031;28;117522;-64
2022/03/06 02:59:46;;;;;;;7.87;3.23;;;0.90;99.90;0.60;101280.00;;;;4975122;28;110545;-64
2022/03/06 03:02:11;;;;;;;10.23;3.97;;;0.90;99.90;0.60;101278.00;;;;4976124;28;92244;-65
2022/03/06 03:04:38;;;;;;;6.27;3.40;;;0.90;99.90;0.60;101285.00;;;;4975221;28;117720;-65
2022/03/06 03:07:07;;;;;;;7.37;3.20;;;1.20;99.90;0.60;101281.00;;;;4975572;28;88979;-65
2022/03/06 03:09:34;;;;;;;5.10;3.40;;;1.30;99.90;0.60;101290.00;;;;4975644;28;88129;-65
2022/03/06 03:12:00;;;;;;;6.23;3.37;;;0.90;99.90;0.60;101292.00;;;;4975329;28;87384;-66
2022/03/06 03:14:26;;;;;;;4.63;3.43;;;0.90;99.90;0.60;101288.00;;;;4976280;28;89046;-66
2022/03/06 03:16:52;;;;;;;4.10;3.03;;;0.90;99.90;0.60;101282.00;;;;4975848;28;88634;-65
2022/03/06 03:19:18;;;;;;;9.20;3.97;;;0.90;99.90;0.60;101299.00;;;;4975014;28;101211;-65
2022/03/06 03:21:45;;;;;;;5.83;3.10;;;1.50;99.90;0.60;101296.00;;;;4975885;28;88026;-65
2022/03/06 03:24:11;;;;;;;6.10;3.47;;;0.90;99.90;0.60;101289.00;;;;4976955;28;117846;-65
2022/03/06 03:26:36;;;;;;;3.90;2.83;;;0.80;99.90;0.60;101288.00;;;;4976906;28;117215;-67
2022/03/06 03:29:02;;;;;;;3.43;2.70;;;1.30;99.90;0.60;101289.00;;;;4975102;28;108496;-67
2022/03/06 03:31:28;;;;;;;5.23;3.43;;;1.00;99.90;0.60;101289.00;;;;4975183;28;108921;-67
2022/03/06 03:33:54;;;;;;;3.30;3.00;;;0.90;99.90;0.70;101306.00;;;;4974749;28;117514;-67
2022/03/06 03:36:20;;;;;;;5.87;2.87;;;1.00;99.90;0.70;101297.00;;;;4975407;28;115995;-67
2022/03/06 03:38:45;;;;;;;5.33;2.93;;;0.90;99.90;0.60;101294.00;;;;4974569;28;87576;-66
2022/03/06 03:41:12;;;;;;;4.60;3.07;;;0.90;99.90;0.70;101302.00;;;;4975720;28;87869;-66
2022/03/06 03:43:38;;;;;;;12.60;3.20;;;1.10;99.90;0.70;101290.00;;;;4974859;28;89283;-65
2022/03/06 03:46:05;;;;;;;3.27;2.80;;;0.90;99.90;0.60;101291.00;;;;4975805;28;88399;-66
2022/03/06 03:48:31;;;;;;;3.13;2.73;;;1.30;99.90;0.60;101299.00;;;;4975096;28;87638;-66
2022/03/06 03:50:58;;;;;;;6.03;2.60;;;1.10;99.90;0.60;101304.00;;;;4975900;28;87782;-66
2022/03/06 03:53:24;;;;;;;3.73;2.90;;;1.30;99.90;0.60;101293.00;;;;4975363;28;94559;-67
2022/03/06 03:55:52;;;;;;;4.00;1.93;;;0.90;99.90;0.60;101304.00;;;;4975576;28;88294;-66
2022/03/06 03:58:19;;;;;;;4.77;2.63;;;1.00;99.90;0.50;101306.00;;;;4972958;28;88083;-65
2022/03/06 04:01:05;;;;;;;7.43;3.13;;;0.80;99.90;0.50;101306.00;;;;4977193;28;86947;-66
2022/03/06 04:03:30;;;;;;;6.03;2.73;;;1.30;99.90;0.50;101303.00;;;;4975190;28;88610;-66
2022/03/06 04:05:56;;;;;;;2.30;2.10;;;0.80;99.90;0.50;101302.00;;;;4975180;28;88749;-66
2022/03/06 04:08:22;;;;;;;2.97;2.20;;;1.70;99.90;0.50;101304.00;;;;4973397;28;109803;-66
2022/03/06 04:10:47;;;;;;;6.30;3.20;;;0.90;99.90;0.50;101309.00;;;;4975288;28;95500;-67
2022/03/06 04:13:13;;;;;;;5.70;3.27;;;0.80;99.90;0.50;101301.00;;;;4973394;28;116914;-66
2022/03/06 04:15:39;;;;;;;3.53;2.43;;;0.80;99.90;0.50;101314.00;;;;4973327;28;87753;-65
2022/03/06 04:18:05;;;;;;;4.40;2.77;;;1.20;99.90;0.50;101304.00;;;;4972334;28;88999;-66
2022/03/06 04:20:31;;;;;;;3.23;2.30;;;0.80;99.90;0.50;101310.00;;;;4974516;28;107933;-67
2022/03/06 04:22:58;;;;;;;3.13;2.60;;;0.80;99.90;0.50;101310.00;;;;4975119;28;88715;-66
2022/03/06 04:25:24;;;;;;;3.20;2.63;;;0.80;99.90;0.50;101305.00;;;;4974620;28;115708;-67
2022/03/06 04:27:50;;;;;;;2.97;2.67;;;0.80;99.90;0.50;101317.00;;;;4972673;28;90677;-68
2022/03/06 04:30:16;;;;;;;5.40;2.60;;;0.80;99.90;0.50;101315.00;;;;4973815;28;109009;-67
2022/03/06 04:32:42;;;;;;;5.93;2.70;;;0.80;99.90;0.50;101316.00;;;;4974168;28;118512;-66
2022/03/06 04:35:08;;;;;;;5.03;2.47;;;1.70;99.90;0.60;101314.00;;;;4979295;28;105175;-66
2022/03/06 04:37:34;;;;;;;4.23;3.03;;;0.90;99.90;0.50;101307.00;;;;4979328;28;87566;-66
2022/03/06 04:40:00;;;;;;;5.20;2.47;;;1.20;99.90;0.60;101306.00;;;;4973551;28;110130;-68
2022/03/06 04:42:25;;;;;;;3.00;2.57;;;1.60;99.90;0.60;101311.00;;;;4974758;28;95037;-68
2022/03/06 04:44:51;;;;;;;3.77;2.93;;;0.70;99.90;0.50;101317.00;;;;4974766;28;99239;-68
2022/03/06 04:47:17;;;;;;;4.63;3.00;;;0.80;99.90;0.60;101309.00;;;;4975162;28;89571;-68
2022/03/06 04:49:42;;;;;;;3.00;1.90;;;0.90;99.90;0.60;101319.00;;;;4975197;28;86792;-67
2022/03/06 04:52:08;;;;;;;5.77;2.77;;;0.90;99.90;0.60;101312.00;;;;4978688;28;89245;-68
2022/03/06 04:54:34;;;;;;;3.43;2.83;;;0.80;99.90;0.60;101307.00;;;;4976924;28;118623;-68
2022/03/06 04:57:02;;;;;;;2.97;2.77;;;0.90;99.90;0.60;101313.00;;;;4978066;28;88805;-67
2022/03/06 04:59:28;;;;;;;3.57;2.73;;;0.90;99.90;0.60;101317.00;;;;4977572;28;88698;-68
2022/03/06 05:01:55;;;;;;;4.83;2.97;;;1.50;99.90;0.60;101319.00;;;;4976200;28;88052;-68
2022/03/06 05:04:21;;;;;;;5.13;3.37;;;1.60;99.90;0.60;101311.00;;;;4978117;28;87756;-68
2022/03/06 05:06:46;;;;;;;8.23;3.00;;;0.80;99.90;0.60;101314.00;;;;4977980;28;91976;-68
2022/03/06 05:09:12;;;;;;;4.00;3.60;;;1.20;99.90;0.60;101318.00;;;;4976519;28;108046;-68
2022/03/06 05:11:38;;;;;;;5.23;2.53;;;1.30;99.90;0.50;101319.00;;;;4977246;28;117683;-68
2022/03/06 05:14:04;;;;;;;4.50;2.87;;;0.80;99.90;0.40;101317.00;;;;4977144;28;117112;-68
2022/03/06 05:16:29;;;;;;;3.57;2.50;;;0.70;99.90;0.40;101313.00;;;;4976189;28;87825;-67
2022/03/06 05:18:56;;;;;;;4.70;2.73;;;0.60;99.90;0.30;101317.00;;;;4977269;28;94621;-68
2022/03/06 05:21:22;;;;;;;7.13;3.87;;;0.60;99.90;0.30;101316.00;;;;4976562;28;88970;-68
2022/03/06 05:23:48;;;;;;;3.43;3.07;;;0.60;99.90;0.40;101308.00;;;;4975292;28;94819;-68
2022/03/06 05:26:14;;;;;;;4.53;3.13;;;0.70;99.90;0.30;101297.00;;;;4978435;28;87994;-67
2022/03/06 05:28:41;;;;;;;3.50;2.53;;;0.60;99.90;0.30;101306.00;;;;4977582;28;87583;-67
2022/03/06 05:31:08;;;;;;;5.97;2.60;;;0.60;99.90;0.30;101310.00;;;;4977751;28;88373;-68
2022/03/06 05:33:34;;;;;;;4.43;3.60;;;0.50;99.90;0.40;101309.00;;;;4961718;28;87956;-67
2022/03/06 05:35:59;;;;;;;5.40;3.50;;;0.70;99.90;0.30;101306.00;;;;4977510;28;87833;-67
2022/03/06 05:38:25;;;;;;;3.70;2.77;;;0.70;99.90;0.30;101304.00;;;;4976355;28;108251;-67
2022/03/06 05:40:51;;;;;;;2.50;2.30;;;0.70;99.90;0.30;101301.00;;;;4976373;28;118056;-67
2022/03/06 05:43:17;;;;;;;3.53;2.60;;;0.50;99.90;0.30;101309.00;;;;4976292;28;116885;-67
2022/03/06 05:45:42;;;;;;;4.10;2.27;;;0.70;99.90;0.30;101306.00;;;;4976278;28;110522;-67
2022/03/06 05:48:08;;;;;;;4.17;2.63;;;0.50;99.90;0.30;101302.00;;;;4976645;28;87839;-68
2022/03/06 05:50:34;;;;;;;9.67;3.03;;;1.30;99.90;0.30;101311.00;;;;4975836;28;116513;-67
2022/03/06 05:53:00;;;;;;;4.53;3.23;;;0.50;99.90;0.20;101318.00;;;;4977044;28;101000;-67
2022/03/06 05:55:26;;;;;;;4.03;3.63;;;0.60;99.90;0.20;101320.00;;;;4976817;28;110588;-67
2022/03/06 05:57:51;;;;;;;2.60;2.27;;;0.50;99.90;0.20;101310.00;;;;4976565;28;107512;-67
2022/03/06 06:00:18;;;;;;;4.47;3.50;;;0.60;99.90;0.10;101315.00;;;;4975052;28;117684;-67
2022/03/06 06:02:44;;;;;;;6.20;3.70;;;1.50;99.90;0.10;101316.00;;;;4977206;28;87844;-67
2022/03/06 06:05:10;;;;;;;4.67;3.03;;;0.40;99.90;0.10;101316.00;;;;4976953;28;87937;-67
2022/03/06 06:07:36;;;;;;;4.73;3.90;;;0.40;99.90;0.10;101308.00;;;;4977093;28;94623;-67
2022/03/06 06:10:04;;;;;;;10.33;3.43;;;1.20;99.90;0.10;101329.00;;;;4976224;28;89056;-67
2022/03/06 06:12:30;;;;;;;3.33;3.03;;;0.50;99.90;0.10;101324.00;;;;4975999;28;104253;-68
2022/03/06 06:14:56;;;;;;;3.77;3.10;;;0.60;99.90;0.20;101320.00;;;;4974038;28;108600;-67
2022/03/06 06:17:22;;;;;;;5.30;2.93;;;0.70;99.90;0.20;101322.00;;;;4976012;28;101361;-67
2022/03/06 06:19:47;;;;;;;3.07;2.77;;;0.50;99.90;0.20;101329.00;;;;4976156;28;88067;-67
2022/03/06 06:22:13;;;;;;;10.00;3.77;;;0.50;99.90;0.20;101334.00;;;;4956860;28;90373;-67
2022/03/06 06:24:39;;;;;;;3.17;2.47;;;1.40;99.90;0.30;101324.00;;;;4973457;28;88135;-68
2022/03/06 06:27:05;;;;;;;5.00;3.70;;;0.50;99.90;0.30;101331.00;;;;4977682;28;87185;-68
2022/03/06 06:29:30;;;;;;;6.03;3.50;;;0.50;99.90;0.30;101328.00;;;;4976138;28;88763;-68
2022/03/06 06:31:56;;;;;;;5.23;2.80;;;0.50;99.90;0.30;101329.00;;;;4976402;28;87753;-67
2022/03/06 06:34:23;;;;;;;4.63;3.63;;;0.50;99.90;0.40;101326.00;;;;4975925;28;88693;-68
2022/03/06 06:36:49;;;;;;;4.47;3.27;;;0.50;99.90;0.40;101331.00;;;;4976627;28;87777;-67
2022/03/06 06:39:15;;;;;;;6.73;3.93;;;0.60;99.90;0.40;101335.00;;;;4973555;28;87641;-67
2022/03/06 06:41:42;;;;;;;5.40;3.73;;;1.50;99.90;0.50;101332.00;;;;4972745;28;99352;-67
2022/03/06 06:44:09;;;;;;;4.73;3.90;;;1.00;99.90;0.50;101338.00;;;;4973021;28;87775;-68
2022/03/06 06:46:36;;;;;;;5.67;4.20;;;0.80;99.90;0.50;101335.00;;;;4963390;28;89259;-65
2022/03/06 06:49:03;;;;;;;5.87;3.73;;;0.80;99.90;0.50;101322.00;;;;4972689;28;88909;-66
2022/03/06 06:51:30;;;;;;;5.67;3.53;;;1.40;99.90;0.60;101321.00;;;;4972810;28;87779;-66
2022/03/06 06:53:56;;;;;;;7.30;4.43;;;1.40;99.90;0.60;101333.00;;;;4965388;28;87924;-66
2022/03/06 06:56:22;;;;;;;4.33;3.37;;;0.80;99.90;0.60;101331.00;;;;4972840;28;87719;-67
2022/03/06 06:58:48;;;;;;;9.03;4.40;;;0.90;99.90;0.60;101344.00;;;;4970992;28;91025;-66
2022/03/06 07:01:16;;;;;;;6.47;4.17;;;0.80;99.90;0.70;101336.00;;;;4971706;28;117983;-66
2022/03/06 07:03:42;;;;;;;7.53;4.57;;;1.00;99.90;0.70;101339.00;;;;4973395;28;87844;-66
2022/03/06 07:06:07;;;;;;;7.10;3.77;;;0.90;99.90;0.70;101345.00;;;;4971592;28;103047;-66
2022/03/06 07:08:33;;;;;;;6.87;4.17;;;1.00;99.90;0.80;101337.00;;;;4971776;28;116793;-66
2022/03/06 07:10:59;;;;;;;4.40;3.80;;;1.10;99.90;0.80;101348.00;;;;4971083;28;117882;-66
2022/03/06 07:13:24;;;;;;;6.87;4.27;;;1.60;99.90;0.90;101348.00;;;;4968085;28;110315;-67
2022/03/06 07:15:50;;;;;;;3.43;2.97;;;1.70;99.90;0.90;101339.00;;;;4970634;28;107548;-64
2022/03/06 07:18:16;;;;;;;9.37;5.23;;;1.20;99.90;1.00;101347.00;;;;4970740;28;112343;-67
2022/03/06 07:20:41;;;;;;;5.77;4.57;;;1.20;99.90;1.10;101351.00;;;;4972160;28;100162;-66
2022/03/06 07:23:07;;;;;;;9.83;4.60;;;1.40;99.90;1.10;101363.00;;;;4962610;28;110661;-66
2022/03/06 07:25:33;;;;;;;6.37;3.67;;;1.30;99.90;1.20;101358.00;;;;4972035;28;87762;-66
2022/03/06 07:27:59;;;;;;;5.20;4.03;;;1.40;99.90;1.20;101359.00;;;;4972420;28;88361;-66
2022/03/06 07:30:24;;;;;;;8.13;4.00;;;1.50;99.90;1.30;101355.00;;;;4970819;28;87874;-66
2022/03/06 07:32:52;;;;;;;6.13;4.07;;;1.40;99.90;1.40;101362.00;;;;4976604;28;94613;-66
2022/03/06 07:35:21;;;;;;;4.33;3.30;;;2.40;99.90;1.40;101365.00;;;;4976591;28;88053;-65
2022/03/06 07:37:47;;;;;;;5.10;3.90;;;1.70;99.90;1.50;101368.00;;;;4970375;28;88153;-66
2022/03/06 07:40:18;;;;;;;4.50;3.33;;;1.60;99.90;1.50;101367.00;;;;4971493;28;87211;-66
2022/03/06 07:42:43;;;;;;;5.43;3.53;;;2.20;99.90;1.50;101363.00;;;;4972167;28;87847;-66
2022/03/06 07:45:10;;;;;;;4.60;3.67;;;1.70;99.90;1.60;101376.00;;;;4967765;28;109291;-66
2022/03/06 07:47:37;;;;;;;5.10;3.10;;;1.80;99.90;1.60;101367.00;;;;4971594;28;89383;-66
2022/03/06 07:50:04;;;;;;;4.50;3.50;;;1.80;99.90;1.60;101372.00;;;;4970931;28;89677;-66
2022/03/06 07:52:30;;;;;;;4.40;3.37;;;1.90;99.80;1.70;101375.00;;;;4972485;28;88062;-66
2022/03/06 07:54:57;;;;;;;5.60;3.57;;;1.90;99.60;1.70;101374.00;;;;4970297;28;109106;-66
2022/03/06 07:57:22;;;;;;;6.60;5.03;;;2.00;99.50;1.70;101368.00;;;;4970868;28;118942;-66
2022/03/06 07:59:48;;;;;;;4.53;3.40;;;1.90;99.40;1.80;101374.00;;;;4971263;28;88018;-66
2022/03/06 08:02:15;;;;;;;4.10;3.50;;;2.70;99.50;1.80;101364.00;;;;4972246;28;88347;-66
2022/03/06 08:04:40;;;;;;;5.13;4.23;;;2.10;99.20;1.90;101370.00;;;;4972181;28;95405;-66
2022/03/06 08:07:06;;;;;;;5.43;4.20;;;1.70;98.90;1.90;101372.00;;;;4970856;28;118755;-66
2022/03/06 08:09:32;;;;;;;7.13;4.30;;;2.10;98.80;2.00;101375.00;;;;4971913;28;89720;-68
2022/03/06 08:11:59;;;;;;;7.13;5.03;;;2.60;98.70;2.00;101374.00;;;;4971280;28;110352;-68
2022/03/06 08:14:24;;;;;;;6.23;4.20;;;2.20;98.40;2.00;101372.00;;;;4978860;28;87696;-68
2022/03/06 08:16:50;;;;;;;6.80;5.10;;;2.30;98.20;2.10;101378.00;;;;4971597;28;116330;-67
2022/03/06 08:19:16;;;;;;;7.73;4.73;;;2.50;98.20;2.10;101373.00;;;;4971374;28;88162;-66
2022/03/06 08:21:42;;;;;;;9.43;4.77;;;2.30;97.90;2.10;101383.00;;;;4972084;28;87785;-66
2022/03/06 08:24:08;;;;;;;8.57;5.50;;;2.30;97.50;2.20;101376.00;;;;4974916;28;87831;-66
2022/03/06 08:26:33;;;;;;;7.00;4.57;;;2.50;97.40;2.20;101383.00;;;;4977464;28;117003;-66
2022/03/06 08:28:59;;;;;;;8.50;5.40;;;2.30;97.10;2.20;101381.00;;;;4975959;28;116697;-66
2022/03/06 08:31:25;;;;;;;16.70;10.33;;;2.40;96.80;2.30;101368.00;;;;4974907;28;110663;-65
2022/03/06 08:33:52;;;;;;;53.87;32.40;;;2.70;96.70;2.30;101379.00;;;;4977439;28;108922;-66
2022/03/06 08:36:17;;;;;;;23.73;15.77;;;2.50;96.40;2.30;101384.00;;;;4977087;28;89017;-68
2022/03/06 08:38:43;;;;;;;14.77;7.43;;;2.50;96.40;2.40;101380.00;;;;4976917;28;103771;-68
2022/03/06 08:41:09;;;;;;;17.20;11.37;;;2.80;96.30;2.40;101381.00;;;;4977211;28;90427;-67
2022/03/06 08:43:35;;;;;;;13.67;6.83;;;2.60;96.00;2.50;101374.00;;;;4978161;28;87943;-67
2022/03/06 08:46:03;;;;;;;13.63;8.63;;;2.70;95.60;2.50;101373.00;;;;4977423;28;116350;-66
2022/03/06 08:48:30;;;;;;;12.73;7.00;;;2.70;95.30;2.50;101375.00;;;;4977701;28;87806;-66
2022/03/06 08:50:56;;;;;;;12.57;7.40;;;2.70;95.10;2.60;101378.00;;;;4975379;28;87688;-66
2022/03/06 08:53:22;;;;;;;7.80;5.97;;;2.80;94.90;2.70;101379.00;;;;4978563;28;86798;-66
2022/03/06 08:55:48;;;;;;;12.30;8.33;;;2.80;94.70;2.70;101380.00;;;;4978297;28;88046;-66
2022/03/06 08:58:14;;;;;;;9.10;6.27;;;2.90;94.30;2.80;101382.00;;;;4976978;28;118753;-66
2022/03/06 09:00:40;;;;;;;6.57;5.70;;;2.90;94.10;2.90;101384.00;;;;4976568;28;97253;-66
2022/03/06 09:03:06;;;;;;;8.07;5.07;;;3.00;93.80;2.90;101385.00;;;;4978415;28;87815;-66
2022/03/06 09:05:32;;;;;;;7.57;5.27;;;3.00;93.50;3.00;101393.00;;;;4977833;28;101731;-68
2022/03/06 09:07:57;;;;;;;11.30;6.47;;;3.20;93.30;3.10;101384.00;;;;4977353;28;117533;-67
2022/03/06 09:10:23;;;;;;;99.57;41.83;;;3.20;92.90;3.10;101390.00;;;;4978068;28;87792;-67
2022/03/06 09:12:49;;;;;;;19.53;11.57;;;3.30;92.50;3.20;101393.00;;;;4977880;28;87577;-67
2022/03/06 09:15:14;;;;;;;7.40;6.23;;;3.30;92.10;3.20;101403.00;;;;4977576;28;94329;-67
2022/03/06 09:17:41;;;;;;;5.73;4.67;;;3.40;91.80;3.30;101382.00;;;;4974277;28;93361;-67
2022/03/06 09:20:08;;;;;;;8.20;5.37;;;3.40;91.50;3.30;101396.00;;;;4971916;28;87865;-67
2022/03/06 09:22:34;;;;;;;10.70;6.27;;;3.50;91.30;3.40;101388.00;;;;4970961;28;87571;-67
2022/03/06 09:24:59;;;;;;;6.83;4.50;;;3.50;90.90;3.40;101390.00;;;;4976593;28;104152;-67
2022/03/06 09:27:25;;;;;;;7.87;5.47;;;3.60;90.70;3.50;101392.00;;;;4977170;28;118432;-67
2022/03/06 09:29:51;;;;;;;8.80;6.70;;;3.60;90.40;3.50;101389.00;;;;4975765;28;109977;-67
2022/03/06 09:32:16;;;;;;;9.23;6.80;;;3.60;90.10;3.50;101388.00;;;;4976326;28;108646;-67
2022/03/06 09:34:43;;;;;;;8.23;6.30;;;3.60;88.00;3.50;101383.00;;;;4976754;28;118256;-67
2022/03/06 09:37:08;;;;;;;11.93;7.10;;;3.70;87.00;3.60;101381.00;;;;4973441;28;89301;-67
2022/03/06 09:39:34;;;;;;;29.87;21.17;;;3.70;86.00;3.60;101380.00;;;;4976044;28;88922;-67
2022/03/06 09:42:00;;;;;;;8.43;7.23;;;4.40;85.30;3.70;101382.00;;;;4975621;28;87128;-67
2022/03/06 09:44:27;;;;;;;7.40;4.70;;;3.80;85.00;3.80;101380.00;;;;4972259;28;118096;-67
2022/03/06 09:46:57;;;;;;;7.73;5.47;;;3.90;84.40;3.80;101386.00;;;;4973379;28;88574;-67
2022/03/06 09:49:23;;;;;;;10.83;6.27;;;3.90;80.50;3.70;101389.00;;;;4973342;28;88573;-67
2022/03/06 09:51:50;;;;;;;6.83;5.83;;;3.90;79.00;3.70;101390.00;;;;4973240;28;88101;-67
2022/03/06 09:54:16;;;;;;;8.20;6.83;;;3.90;78.70;3.80;101381.00;;;;4971391;28;89098;-67
2022/03/06 09:56:43;;;;;;;8.33;5.57;;;3.90;79.20;3.90;101387.00;;;;4973909;28;87810;-67
2022/03/06 09:59:09;;;;;;;11.50;4.27;;;4.00;79.50;4.00;101380.00;;;;4974400;28;87824;-67
2022/03/06 10:01:35;;;;;;;7.37;5.47;;;4.10;79.50;4.00;101392.00;;;;4973765;28;91301;-67
2022/03/06 10:04:29;;;;;;;9.97;4.73;;;4.10;79.30;4.10;101384.00;;;;4973197;28;105139;-66
2022/03/06 10:07:05;;;;;;;7.60;5.27;;;4.30;79.20;4.20;101379.00;;;;4968785;28;88043;-66
2022/03/06 10:09:42;;;;;;;4.63;3.30;;;5.40;80.00;4.30;101390.00;;;;4974253;28;88143;-66
2022/03/06 10:12:27;;;;;;;3.87;3.47;;;4.40;78.90;4.30;101383.00;;;;4974101;28;88018;-66
2022/03/06 10:15:01;;;;;;;4.13;3.57;;;4.40;78.50;4.30;101396.00;;;;4966691;28;88835;-68
2022/03/06 10:17:29;;;;;;;5.00;4.00;;;4.40;77.40;4.30;101394.00;;;;4972297;28;104783;-66
2022/03/06 10:20:06;;;;;;;3.10;2.70;;;4.50;76.90;4.30;101387.00;;;;4972779;28;87774;-67
2022/03/06 10:22:35;;;;;;;5.13;3.17;;;4.40;75.80;4.30;101403.00;;;;4964754;28;87625;-66
2022/03/06 10:25:10;;;;;;;7.67;3.10;;;4.50;74.90;4.30;101391.00;;;;4967627;28;87620;-67
2022/03/06 10:27:54;;;;;;;3.70;3.10;;;5.00;75.10;4.30;101387.00;;;;4972681;28;87787;-66
2022/03/06 10:30:37;;;;;;;5.33;2.93;;;4.50;74.30;4.30;101386.00;;;;4971499;28;87914;-66
2022/03/06 10:33:26;;;;;;;5.77;4.03;;;4.50;74.20;4.40;101389.00;;;;4971766;28;87115;-66
2022/03/06 10:35:53;;;;;;;4.70;3.67;;;4.50;74.10;4.40;101387.00;;;;4973222;28;87612;-68
2022/03/06 10:38:28;;;;;;;5.00;3.03;;;4.50;74.00;4.30;101374.00;;;;4973755;28;87851;-67
2022/03/06 10:40:58;;;;;;;3.03;2.67;;;4.50;73.00;4.30;101382.00;;;;4973222;28;88756;-66
2022/03/06 10:43:33;;;;;;;7.37;3.00;;;4.40;73.30;4.20;101382.00;;;;4975374;28;87638;-67
2022/03/06 10:46:13;;;;;;;6.23;2.90;;;4.40;72.80;4.10;101388.00;;;;4973880;28;87929;-67
2022/03/06 10:48:41;;;;;;;3.27;2.70;;;4.30;72.10;4.10;101383.00;;;;4969423;28;102158;-66
2022/03/06 10:51:10;;;;;;;3.33;2.63;;;4.30;71.80;4.00;101384.00;;;;4972570;28;87792;-66
2022/03/06 10:53:36;;;;;;;5.37;3.63;;;4.10;71.60;3.80;101387.00;;;;4972812;28;97426;-66
2022/03/06 10:56:12;;;;;;;3.90;2.70;;;4.10;70.30;3.60;101388.00;;;;4973261;28;87956;-67